sensor_id;sensor_type;location;lat;lon;timestamp;pressure;altitude;pressure_sealevel;temperature;humidity
72157;BME280;60035;52.122;5.406;2023-02-26T00:02:25;102152.09;;;0.44;88.20
72157;BME280;60035;52.122;5.406;2023-02-26T00:04:51;102157.28;;;0.48;87.73
72157;BME280;60035;52.122;5.406;2023-02-26T00:07:18;102157.47;;;0.55;87.20
72157;BME280;60035;52.122;5.406;2023-02-26T00:09:44;102159.28;;;0.59;86.65
72157;BME280;60035;52.122;5.406;2023-02-26T00:12:11;102162.81;;;0.64;86.23
72157;BME280;60035;52.122;5.406;2023-02-26T00:14:38;102167.91;;;0.65;85.74
72157;BME280;60035;52.122;5.406;2023-02-26T00:19:53;102180.56;;;0.67;84.97
72157;BME280;60035;52.122;5.406;2023-02-26T00:22:20;102182.31;;;0.70;84.53
72157;BME280;60035;52.122;5.406;2023-02-26T00:24:46;102181.56;;;0.72;84.32
72157;BME280;60035;52.122;5.406;2023-02-26T00:27:13;102194.19;;;0.72;84.09
72157;BME280;60035;52.122;5.406;2023-02-26T00:29:40;102191.69;;;0.74;83.82
72157;BME280;60035;52.122;5.406;2023-02-26T00:32:07;102201.19;;;0.81;83.41
72157;BME280;60035;52.122;5.406;2023-02-26T00:34:34;102210.56;;;0.85;83.12
72157;BME280;60035;52.122;5.406;2023-02-26T00:37:21;102215.75;;;0.90;82.54
72157;BME280;60035;52.122;5.406;2023-02-26T00:42:42;102223.16;;;1.11;81.21
72157;BME280;60035;52.122;5.406;2023-02-26T00:45:11;102224.91;;;1.13;80.86
72157;BME280;60035;52.122;5.406;2023-02-26T00:50:47;102231.66;;;1.13;80.54
72157;BME280;60035;52.122;5.406;2023-02-26T00:53:33;102232.44;;;1.12;80.24
72157;BME280;60035;52.122;5.406;2023-02-26T00:56:01;102230.63;;;1.08;80.15
72157;BME280;60035;52.122;5.406;2023-02-26T00:58:27;102234.84;;;1.07;80.08
72157;BME280;60035;52.122;5.406;2023-02-26T01:00:54;102232.34;;;1.09;80.14
72157;BME280;60035;52.122;5.406;2023-02-26T01:03:20;102226.34;;;1.05;79.82
72157;BME280;60035;52.122;5.406;2023-02-26T01:05:47;102227.16;;;1.04;79.65
72157;BME280;60035;52.122;5.406;2023-02-26T01:08:33;102229.53;;;0.99;79.62
72157;BME280;60035;52.122;5.406;2023-02-26T01:11:01;102225.22;;;0.95;79.85
72157;BME280;60035;52.122;5.406;2023-02-26T01:13:28;102231.84;;;0.93;79.77
72157;BME280;60035;52.122;5.406;2023-02-26T01:16:04;102233.56;;;0.94;79.61
72157;BME280;60035;52.122;5.406;2023-02-26T01:18:47;102239.41;;;0.93;79.60
72157;BME280;60035;52.122;5.406;2023-02-26T01:21:24;102237.69;;;0.92;79.60
72157;BME280;60035;52.122;5.406;2023-02-26T01:23:53;102252.88;;;0.94;79.95
72157;BME280;60035;52.122;5.406;2023-02-26T01:26:23;102246.97;;;0.93;79.87
72157;BME280;60035;52.122;5.406;2023-02-26T01:28:52;102253.63;;;0.91;79.68
72157;BME280;60035;52.122;5.406;2023-02-26T01:31:34;102252.72;;;0.89;79.72
72157;BME280;60035;52.122;5.406;2023-02-26T01:34:22;102253.50;;;0.87;79.49
72157;BME280;60035;52.122;5.406;2023-02-26T01:37:26;102253.44;;;0.85;79.46
72157;BME280;60035;52.122;5.406;2023-02-26T01:42:45;102255.69;;;0.77;79.45
72157;BME280;60035;52.122;5.406;2023-02-26T01:45:20;102259.81;;;0.75;79.01
72157;BME280;60035;52.122;5.406;2023-02-26T01:48:20;102267.34;;;0.74;79.14
72157;BME280;60035;52.122;5.406;2023-02-26T01:50:49;102269.66;;;0.68;79.20
72157;BME280;60035;52.122;5.406;2023-02-26T01:53:25;102272.06;;;0.64;79.14
72157;BME280;60035;52.122;5.406;2023-02-26T01:55:57;102267.78;;;0.62;78.89
72157;BME280;60035;52.122;5.406;2023-02-26T01:58:26;102271.09;;;0.61;79.01
72157;BME280;60035;52.122;5.406;2023-02-26T02:00:53;102273.56;;;0.59;78.79
72157;BME280;60035;52.122;5.406;2023-02-26T02:03:21;102280.28;;;0.59;79.00
72157;BME280;60035;52.122;5.406;2023-02-26T02:05:53;102278.47;;;0.55;78.78
72157;BME280;60035;52.122;5.406;2023-02-26T02:08:21;102282.56;;;0.53;78.89
72157;BME280;60035;52.122;5.406;2023-02-26T02:10:49;102279.94;;;0.49;78.62
72157;BME280;60035;52.122;5.406;2023-02-26T02:21:40;102292.19;;;0.39;78.70
72157;BME280;60035;52.122;5.406;2023-02-26T02:26:55;102298.75;;;0.35;78.56
72157;BME280;60035;52.122;5.406;2023-02-26T02:29:44;102307.91;;;0.33;78.62
72157;BME280;60035;52.122;5.406;2023-02-26T02:32:20;102301.88;;;0.28;78.65
72157;BME280;60035;52.122;5.406;2023-02-26T02:35:13;102315.31;;;0.28;78.45
72157;BME280;60035;52.122;5.406;2023-02-26T02:37:46;102314.28;;;0.23;78.41
72157;BME280;60035;52.122;5.406;2023-02-26T02:40:24;102311.66;;;0.20;78.13
72157;BME280;60035;52.122;5.406;2023-02-26T02:43:15;102317.53;;;0.21;78.28
72157;BME280;60035;52.122;5.406;2023-02-26T02:45:55;102323.38;;;0.20;78.29
72157;BME280;60035;52.122;5.406;2023-02-26T02:48:28;102317.44;;;0.18;78.35
72157;BME280;60035;52.122;5.406;2023-02-26T02:51:13;102321.53;;;0.15;78.12
72157;BME280;60035;52.122;5.406;2023-02-26T02:56:26;102328.06;;;0.10;78.02
72157;BME280;60035;52.122;5.406;2023-02-26T02:59:10;102326.44;;;0.11;77.82
72157;BME280;60035;52.122;5.406;2023-02-26T03:01:39;102329.69;;;0.08;77.43
72157;BME280;60035;52.122;5.406;2023-02-26T03:04:09;102332.16;;;0.07;77.40
72157;BME280;60035;52.122;5.406;2023-02-26T03:06:37;102339.63;;;0.05;77.15
72157;BME280;60035;52.122;5.406;2023-02-26T03:09:05;102343.00;;;0.06;76.98
72157;BME280;60035;52.122;5.406;2023-02-26T03:11:32;102342.97;;;0.04;77.00
72157;BME280;60035;52.122;5.406;2023-02-26T03:13:58;102345.41;;;0.03;76.86
72157;BME280;60035;52.122;5.406;2023-02-26T03:19:27;102353.72;;;0.00;76.68
72157;BME280;60035;52.122;5.406;2023-02-26T03:22:02;102350.31;;;-0.01;76.74
72157;BME280;60035;52.122;5.406;2023-02-26T03:24:43;102357.81;;;-0.02;76.50
72157;BME280;60035;52.122;5.406;2023-02-26T03:27:31;102352.69;;;-0.05;76.45
72157;BME280;60035;52.122;5.406;2023-02-26T03:30:17;102362.66;;;-0.07;76.37
72157;BME280;60035;52.122;5.406;2023-02-26T03:32:50;102365.13;;;-0.08;76.40
72157;BME280;60035;52.122;5.406;2023-02-26T03:35:28;102361.66;;;-0.12;76.35
72157;BME280;60035;52.122;5.406;2023-02-26T03:37:59;102369.13;;;-0.13;76.45
72157;BME280;60035;52.122;5.406;2023-02-26T03:40:30;102373.25;;;-0.15;76.11
72157;BME280;60035;52.122;5.406;2023-02-26T03:43:03;102370.69;;;-0.17;76.22
72157;BME280;60035;52.122;5.406;2023-02-26T03:45:36;102373.13;;;-0.19;76.55
72157;BME280;60035;52.122;5.406;2023-02-26T03:48:06;102374.72;;;-0.21;76.48
72157;BME280;60035;52.122;5.406;2023-02-26T03:50:41;102380.50;;;-0.23;76.56
72157;BME280;60035;52.122;5.406;2023-02-26T03:53:11;102391.31;;;-0.26;76.23
72157;BME280;60035;52.122;5.406;2023-02-26T03:55:45;102387.84;;;-0.28;76.36
72157;BME280;60035;52.122;5.406;2023-02-26T03:58:14;102392.81;;;-0.29;76.37
72157;BME280;60035;52.122;5.406;2023-02-26T04:00:42;102396.06;;;-0.32;76.00
72157;BME280;60035;52.122;5.406;2023-02-26T04:03:18;102396.06;;;-0.32;76.37
72157;BME280;60035;52.122;5.406;2023-02-26T04:05:49;102404.44;;;-0.33;75.89
72157;BME280;60035;52.122;5.406;2023-02-26T04:08:17;102404.44;;;-0.33;76.16
72157;BME280;60035;52.122;5.406;2023-02-26T04:10:51;102401.78;;;-0.36;76.13
72157;BME280;60035;52.122;5.406;2023-02-26T04:13:18;102405.97;;;-0.37;76.09
72157;BME280;60035;52.122;5.406;2023-02-26T04:15:45;102406.69;;;-0.39;76.00
72157;BME280;60035;52.122;5.406;2023-02-26T04:18:11;102414.19;;;-0.41;75.93
72157;BME280;60035;52.122;5.406;2023-02-26T04:20:38;102425.06;;;-0.42;76.21
72157;BME280;60035;52.122;5.406;2023-02-26T04:23:04;102420.81;;;-0.43;76.48
72157;BME280;60035;52.122;5.406;2023-02-26T04:25:31;102429.09;;;-0.45;75.67
72157;BME280;60035;52.122;5.406;2023-02-26T04:27:58;102424.84;;;-0.46;75.96
72157;BME280;60035;52.122;5.406;2023-02-26T04:30:24;102439.88;;;-0.48;76.42
72157;BME280;60035;52.122;5.406;2023-02-26T04:32:51;102429.75;;;-0.49;76.02
72157;BME280;60035;52.122;5.406;2023-02-26T04:35:17;102439.81;;;-0.49;76.35
72157;BME280;60035;52.122;5.406;2023-02-26T04:37:44;102442.28;;;-0.51;76.24
72157;BME280;60035;52.122;5.406;2023-02-26T04:40:11;102449.78;;;-0.53;76.47
72157;BME280;60035;52.122;5.406;2023-02-26T04:42:38;102452.22;;;-0.54;76.22
72157;BME280;60035;52.122;5.406;2023-02-26T04:45:05;102453.88;;;-0.55;76.46
72157;BME280;60035;52.122;5.406;2023-02-26T04:47:32;102448.72;;;-0.58;76.58
72157;BME280;60035;52.122;5.406;2023-02-26T04:49:59;102457.06;;;-0.59;76.26
72157;BME280;60035;52.122;5.406;2023-02-26T04:52:25;102459.50;;;-0.60;76.26
72157;BME280;60035;52.122;5.406;2023-02-26T04:54:52;102458.66;;;-0.61;76.71
72157;BME280;60035;52.122;5.406;2023-02-26T04:57:18;102457.72;;;-0.63;76.75
72157;BME280;60035;52.122;5.406;2023-02-26T04:59:44;102465.19;;;-0.64;76.53
72157;BME280;60035;52.122;5.406;2023-02-26T05:02:11;102466.84;;;-0.65;76.67
72157;BME280;60035;52.122;5.406;2023-02-26T05:04:37;102470.06;;;-0.68;76.34
72157;BME280;60035;52.122;5.406;2023-02-26T05:07:04;102484.31;;;-0.68;76.55
72157;BME280;60035;52.122;5.406;2023-02-26T05:09:31;102483.31;;;-0.72;76.43
72157;BME280;60035;52.122;5.406;2023-02-26T05:12:04;102491.69;;;-0.73;76.45
72157;BME280;60035;52.122;5.406;2023-02-26T05:14:30;102489.00;;;-0.76;76.56
72157;BME280;60035;52.122;5.406;2023-02-26T05:16:57;102493.97;;;-0.77;76.21
72157;BME280;60035;52.122;5.406;2023-02-26T05:19:23;102495.66;;;-0.78;76.44
72157;BME280;60035;52.122;5.406;2023-02-26T05:21:50;102499.81;;;-0.78;76.27
72157;BME280;60035;52.122;5.406;2023-02-26T05:24:16;102508.13;;;-0.79;76.50
72157;BME280;60035;52.122;5.406;2023-02-26T05:26:43;102510.53;;;-0.82;76.77
72157;BME280;60035;52.122;5.406;2023-02-26T05:29:10;102502.91;;;-0.84;76.49
72157;BME280;60035;52.122;5.406;2023-02-26T05:31:36;102516.22;;;-0.87;76.50
72157;BME280;60035;52.122;5.406;2023-02-26T05:34:03;102517.00;;;-0.88;76.66
72157;BME280;60035;52.122;5.406;2023-02-26T05:36:29;102517.78;;;-0.89;76.55
72157;BME280;60035;52.122;5.406;2023-02-26T05:38:56;102520.22;;;-0.90;76.75
72157;BME280;60035;52.122;5.406;2023-02-26T05:41:22;102520.94;;;-0.93;76.69
72157;BME280;60035;52.122;5.406;2023-02-26T05:43:50;102531.81;;;-0.94;76.61
72157;BME280;60035;52.122;5.406;2023-02-26T05:46:16;102536.69;;;-0.97;76.49
72157;BME280;60035;52.122;5.406;2023-02-26T05:48:43;102540.88;;;-0.97;76.75
72157;BME280;60035;52.122;5.406;2023-02-26T05:51:11;102545.84;;;-0.99;76.57
72157;BME280;60035;52.122;5.406;2023-02-26T05:53:37;102542.38;;;-1.01;76.69
72157;BME280;60035;52.122;5.406;2023-02-26T05:56:04;102549.84;;;-1.03;76.83
72157;BME280;60035;52.122;5.406;2023-02-26T05:58:31;102559.84;;;-1.04;76.53
72157;BME280;60035;52.122;5.406;2023-02-26T06:00:59;102553.88;;;-1.06;76.75
72157;BME280;60035;52.122;5.406;2023-02-26T06:03:26;102568.88;;;-1.08;77.13
72157;BME280;60035;52.122;5.406;2023-02-26T06:05:52;102556.97;;;-1.12;76.72
72157;BME280;60035;52.122;5.406;2023-02-26T06:08:19;102568.69;;;-1.12;76.85
72157;BME280;60035;52.122;5.406;2023-02-26T06:10:45;102570.25;;;-1.14;76.99
72157;BME280;60035;52.122;5.406;2023-02-26T06:13:12;102577.72;;;-1.16;76.82
72157;BME280;60035;52.122;5.406;2023-02-26T06:15:38;102567.59;;;-1.18;76.82
72157;BME280;60035;52.122;5.406;2023-02-26T06:18:05;102570.13;;;-1.18;76.99
72157;BME280;60035;52.122;5.406;2023-02-26T06:20:31;102575.06;;;-1.19;76.83
72157;BME280;60035;52.122;5.406;2023-02-26T06:22:58;102585.03;;;-1.21;76.88
72157;BME280;60035;52.122;5.406;2023-02-26T06:25:24;102584.19;;;-1.21;77.27
72157;BME280;60035;52.122;5.406;2023-02-26T06:27:51;102588.25;;;-1.23;76.93
72157;BME280;60035;52.122;5.406;2023-02-26T06:30:17;102585.69;;;-1.25;77.33
72157;BME280;60035;52.122;5.406;2023-02-26T06:32:44;102591.59;;;-1.24;77.13
72157;BME280;60035;52.122;5.406;2023-02-26T06:35:11;102598.25;;;-1.25;77.05
72157;BME280;60035;52.122;5.406;2023-02-26T06:37:37;102595.75;;;-1.25;77.14
72157;BME280;60035;52.122;5.406;2023-02-26T06:40:04;102599.97;;;-1.24;77.34
72157;BME280;60035;52.122;5.406;2023-02-26T06:42:31;102599.97;;;-1.24;77.68
72157;BME280;60035;52.122;5.406;2023-02-26T06:44:57;102605.00;;;-1.24;77.61
72157;BME280;60035;52.122;5.406;2023-02-26T06:47:24;102612.56;;;-1.24;77.49
72157;BME280;60035;52.122;5.406;2023-02-26T06:49:50;102610.09;;;-1.22;77.77
72157;BME280;60035;52.122;5.406;2023-02-26T06:52:17;102620.16;;;-1.22;77.69
72157;BME280;60035;52.122;5.406;2023-02-26T06:54:44;102617.72;;;-1.21;77.66
72157;BME280;60035;52.122;5.406;2023-02-26T06:57:10;102624.53;;;-1.18;77.73
72157;BME280;60035;52.122;5.406;2023-02-26T06:59:37;102632.97;;;-1.18;77.84
72157;BME280;60035;52.122;5.406;2023-02-26T07:02:04;102638.19;;;-1.13;77.72
72157;BME280;60035;52.122;5.406;2023-02-26T07:04:32;102640.06;;;-1.09;77.63
72157;BME280;60035;52.122;5.406;2023-02-26T07:06:59;102645.31;;;-1.04;78.30
72157;BME280;60035;52.122;5.406;2023-02-26T07:09:25;102649.63;;;-1.02;77.95
72157;BME280;60035;52.122;5.406;2023-02-26T07:11:51;102654.00;;;-0.97;78.21
72157;BME280;60035;52.122;5.406;2023-02-26T07:14:18;102664.22;;;-0.94;78.13
72157;BME280;60035;52.122;5.406;2023-02-26T07:16:45;102666.06;;;-0.90;77.90
72157;BME280;60035;52.122;5.406;2023-02-26T07:19:11;102671.34;;;-0.86;77.99
72157;BME280;60035;52.122;5.406;2023-02-26T07:21:38;102674.94;;;-0.80;77.97
72157;BME280;60035;52.122;5.406;2023-02-26T07:24:04;102671.78;;;-0.76;77.80
72157;BME280;60035;52.122;5.406;2023-02-26T07:26:31;102676.28;;;-0.69;77.92
72157;BME280;60035;52.122;5.406;2023-02-26T07:28:57;102678.97;;;-0.66;77.73
72157;BME280;60035;52.122;5.406;2023-02-26T07:31:24;102691.03;;;-0.59;77.88
72157;BME280;60035;52.122;5.406;2023-02-26T07:33:51;102684.56;;;-0.54;77.78
72157;BME280;60035;52.122;5.406;2023-02-26T07:36:17;102680.59;;;-0.48;78.20
72157;BME280;60035;52.122;5.406;2023-02-26T07:38:44;102686.78;;;-0.42;78.02
72157;BME280;60035;52.122;5.406;2023-02-26T07:41:11;102692.88;;;-0.37;77.94
72157;BME280;60035;52.122;5.406;2023-02-26T07:43:37;102692.28;;;-0.31;77.71
72157;BME280;60035;52.122;5.406;2023-02-26T07:46:04;102692.56;;;-0.25;77.78
72157;BME280;60035;52.122;5.406;2023-02-26T07:48:31;102693.78;;;-0.17;77.46
72157;BME280;60035;52.122;5.406;2023-02-26T07:50:57;102696.56;;;-0.10;77.30
72157;BME280;60035;52.122;5.406;2023-02-26T07:53:24;102704.47;;;-0.03;77.15
72157;BME280;60035;52.122;5.406;2023-02-26T07:55:50;102709.81;;;0.05;77.01
72157;BME280;60035;52.122;5.406;2023-02-26T07:58:17;102702.63;;;0.13;76.77
72157;BME280;60035;52.122;5.406;2023-02-26T08:00:44;102694.59;;;0.22;75.93
72157;BME280;60035;52.122;5.406;2023-02-26T08:03:11;102716.75;;;0.29;76.16
72157;BME280;60035;52.122;5.406;2023-02-26T08:05:37;102710.31;;;0.36;76.20
72157;BME280;60035;52.122;5.406;2023-02-26T08:08:04;102710.56;;;0.42;75.86
72157;BME280;60035;52.122;5.406;2023-02-26T08:10:30;102720.94;;;0.48;75.87
72157;BME280;60035;52.122;5.406;2023-02-26T08:12:57;102726.22;;;0.54;75.76
72157;BME280;60035;52.122;5.406;2023-02-26T08:15:23;102723.09;;;0.60;75.50
72157;BME280;60035;52.122;5.406;2023-02-26T08:17:53;102735.09;;;0.65;75.46
72157;BME280;60035;52.122;5.406;2023-02-26T08:20:19;102739.59;;;0.73;75.30
72157;BME280;60035;52.122;5.406;2023-02-26T08:22:46;102742.31;;;0.77;75.06
72157;BME280;60035;52.122;5.406;2023-02-26T08:25:13;102748.41;;;0.82;75.16
72157;BME280;60035;52.122;5.406;2023-02-26T08:27:39;102757.94;;;0.90;74.77
72157;BME280;60035;52.122;5.406;2023-02-26T08:30:06;102754.97;;;0.98;74.80
72157;BME280;60035;52.122;5.406;2023-02-26T08:32:37;102756.88;;;1.04;74.26
72157;BME280;60035;52.122;5.406;2023-02-26T08:35:05;102758.72;;;1.08;73.90
72157;BME280;60035;52.122;5.406;2023-02-26T08:37:31;102772.38;;;1.13;73.66
72157;BME280;60035;52.122;5.406;2023-02-26T08:39:58;102763.44;;;1.22;73.74
72157;BME280;60035;52.122;5.406;2023-02-26T08:42:24;102770.44;;;1.27;73.29
72157;BME280;60035;52.122;5.406;2023-02-26T08:44:51;102773.13;;;1.32;72.49
72157;BME280;60035;52.122;5.406;2023-02-26T08:47:18;102772.53;;;1.38;72.00
72157;BME280;60035;52.122;5.406;2023-02-26T08:49:54;102773.69;;;1.46;71.58
72157;BME280;60035;52.122;5.406;2023-02-26T08:52:21;102781.56;;;1.54;71.02
72157;BME280;60035;52.122;5.406;2023-02-26T08:54:48;102785.19;;;1.60;70.49
72157;BME280;60035;52.122;5.406;2023-02-26T08:57:14;102776.25;;;1.69;70.31
72157;BME280;60035;52.122;5.406;2023-02-26T08:59:42;102788.97;;;1.72;69.78
72157;BME280;60035;52.122;5.406;2023-02-26T09:02:10;102795.19;;;1.80;69.64
72157;BME280;60035;52.122;5.406;2023-02-26T09:04:37;102784.63;;;1.90;68.85
72157;BME280;60035;52.122;5.406;2023-02-26T09:07:03;102792.34;;;1.93;67.59
72157;BME280;60035;52.122;5.406;2023-02-26T09:09:30;102805.13;;;1.98;67.26
72157;BME280;60035;52.122;5.406;2023-02-26T09:11:56;102800.31;;;2.04;67.12
72157;BME280;60035;52.122;5.406;2023-02-26T09:14:24;102805.66;;;2.12;67.13
72157;BME280;60035;52.122;5.406;2023-02-26T09:16:50;102791.53;;;2.17;65.57
72157;BME280;60035;52.122;5.406;2023-02-26T09:19:17;102804.38;;;2.23;64.89
72157;BME280;60035;52.122;5.406;2023-02-26T09:21:44;102809.66;;;2.29;63.88
72157;BME280;60035;52.122;5.406;2023-02-26T09:24:10;102813.28;;;2.36;63.77
72157;BME280;60035;52.122;5.406;2023-02-26T09:26:37;102810.91;;;2.41;62.98
72157;BME280;60035;52.122;5.406;2023-02-26T09:29:03;102802.69;;;2.46;63.22
72157;BME280;60035;52.122;5.406;2023-02-26T09:31:30;102809.69;;;2.54;63.01
72157;BME280;60035;52.122;5.406;2023-02-26T09:33:57;102814.22;;;2.62;62.41
72157;BME280;60035;52.122;5.406;2023-02-26T09:36:23;102811.69;;;2.62;61.64
72157;BME280;60035;52.122;5.406;2023-02-26T09:38:50;102807.63;;;2.66;62.17
72157;BME280;60035;52.122;5.406;2023-02-26T09:41:21;102812.25;;;2.78;61.75
72157;BME280;60035;52.122;5.406;2023-02-26T09:49:26;102810.22;;;2.93;60.95
72157;BME280;60035;52.122;5.406;2023-02-26T09:52:10;102819.69;;;2.99;60.66
72157;BME280;60035;52.122;5.406;2023-02-26T09:54:41;102814.00;;;3.05;60.71
72157;BME280;60035;52.122;5.406;2023-02-26T09:57:15;102819.19;;;3.09;60.61
72157;BME280;60035;52.122;5.406;2023-02-26T09:59:45;102823.66;;;3.16;60.46
72157;BME280;60035;52.122;5.406;2023-02-26T10:02:21;102836.81;;;3.32;60.67
72157;BME280;60035;52.122;5.406;2023-02-26T10:04:50;102829.69;;;3.46;60.96
72157;BME280;60035;52.122;5.406;2023-02-26T10:07:46;102829.00;;;3.52;58.69
72157;BME280;60035;52.122;5.406;2023-02-26T10:10:40;102829.22;;;3.58;58.68
72157;BME280;60035;52.122;5.406;2023-02-26T10:16:26;102835.06;;;3.82;59.05
72157;BME280;60035;52.122;5.406;2023-02-26T10:18:58;102837.94;;;3.95;58.14
72157;BME280;60035;52.122;5.406;2023-02-26T10:21:39;102840.75;;;4.04;58.14
72157;BME280;60035;52.122;5.406;2023-02-26T10:24:25;102837.78;;;4.17;58.00
72157;BME280;60035;52.122;5.406;2023-02-26T10:27:03;102849.91;;;4.28;58.09
72157;BME280;60035;52.122;5.406;2023-02-26T10:29:41;102842.41;;;4.32;56.73
72157;BME280;60035;52.122;5.406;2023-02-26T10:32:36;102849.38;;;4.38;57.01
72157;BME280;60035;52.122;5.406;2023-02-26T10:35:25;102847.16;;;4.50;57.02
72157;BME280;60035;52.122;5.406;2023-02-26T10:37:56;102853.16;;;4.53;56.39
72157;BME280;60035;52.122;5.406;2023-02-26T10:43:11;102840.84;;;4.66;54.25
72157;BME280;60035;52.122;5.406;2023-02-26T10:48:58;102855.69;;;4.83;54.60
72157;BME280;60035;52.122;5.406;2023-02-26T10:51:32;102862.53;;;4.86;53.79
72157;BME280;60035;52.122;5.406;2023-02-26T10:54:08;102860.91;;;4.89;53.90
72157;BME280;60035;52.122;5.406;2023-02-26T10:56:37;102862.03;;;4.99;54.06
72157;BME280;60035;52.122;5.406;2023-02-26T10:59:03;102859.81;;;5.11;54.09
72157;BME280;60035;52.122;5.406;2023-02-26T11:01:31;102866.44;;;5.06;52.88
72157;BME280;60035;52.122;5.406;2023-02-26T11:04:07;102866.34;;;5.02;51.85
72157;BME280;60035;52.122;5.406;2023-02-26T11:06:41;102858.94;;;5.11;52.37
72157;BME280;60035;52.122;5.406;2023-02-26T11:09:33;102870.56;;;5.34;53.18
72157;BME280;60035;52.122;5.406;2023-02-26T11:12:11;102868.84;;;5.33;51.95
72157;BME280;60035;52.122;5.406;2023-02-26T11:14:39;102861.09;;;5.29;51.62
72157;BME280;60035;52.122;5.406;2023-02-26T11:17:17;102865.00;;;5.49;52.78
72157;BME280;60035;52.122;5.406;2023-02-26T11:20:00;102869.50;;;5.61;51.20
72157;BME280;60035;52.122;5.406;2023-02-26T11:22:31;102864.34;;;5.58;50.23
72157;BME280;60035;52.122;5.406;2023-02-26T11:24:59;102876.16;;;5.56;50.30
72157;BME280;60035;52.122;5.406;2023-02-26T11:27:30;102878.56;;;5.51;50.52
72157;BME280;60035;52.122;5.406;2023-02-26T11:29:59;102871.25;;;5.62;50.31
72157;BME280;60035;52.122;5.406;2023-02-26T11:32:32;102870.72;;;5.77;50.51
72157;BME280;60035;52.122;5.406;2023-02-26T11:34:59;102873.91;;;5.68;49.82
72157;BME280;60035;52.122;5.406;2023-02-26T11:37:30;102869.78;;;5.74;50.51
72157;BME280;60035;52.122;5.406;2023-02-26T11:40:05;102867.00;;;5.63;49.80
72157;BME280;60035;52.122;5.406;2023-02-26T11:42:40;102868.91;;;5.72;50.23
72157;BME280;60035;52.122;5.406;2023-02-26T11:45:13;102878.28;;;5.74;49.93
72157;BME280;60035;52.122;5.406;2023-02-26T11:47:42;102881.19;;;5.53;50.24
72157;BME280;60035;52.122;5.406;2023-02-26T11:50:19;102880.88;;;5.42;49.95
72157;BME280;60035;52.122;5.406;2023-02-26T11:52:56;102875.03;;;5.45;50.01
72157;BME280;60035;52.122;5.406;2023-02-26T11:55:38;102871.63;;;5.44;49.82
72157;BME280;60035;52.122;5.406;2023-02-26T11:58:21;102876.13;;;5.55;49.57
72157;BME280;60035;52.122;5.406;2023-02-26T12:00:51;102868.91;;;5.72;49.55
72157;BME280;60035;52.122;5.406;2023-02-26T12:03:24;102880.09;;;5.78;49.94
72157;BME280;60035;52.122;5.406;2023-02-26T12:05:51;102870.56;;;5.71;49.62
72157;BME280;60035;52.122;5.406;2023-02-26T12:08:29;102865.88;;;5.88;49.95
72157;BME280;60035;52.122;5.406;2023-02-26T12:16:28;102846.50;;;6.30;48.42
72157;BME280;60035;52.122;5.406;2023-02-26T12:19:04;102855.97;;;6.39;48.64
72157;BME280;60035;52.122;5.406;2023-02-26T12:21:57;102850.25;;;6.49;49.25
72157;BME280;60035;52.122;5.406;2023-02-26T12:27:22;102853.19;;;6.69;48.93
72157;BME280;60035;52.122;5.406;2023-02-26T12:30:27;102855.91;;;6.78;49.30
72157;BME280;60035;52.122;5.406;2023-02-26T12:36:17;102856.22;;;6.95;50.16
72157;BME280;60035;52.122;5.406;2023-02-26T12:51:02;102851.13;;;6.95;49.67
72157;BME280;60035;52.122;5.406;2023-02-26T12:53:47;102847.25;;;7.16;49.66
72157;BME280;60035;52.122;5.406;2023-02-26T12:56:30;102833.88;;;7.29;48.64
72157;BME280;60035;52.122;5.406;2023-02-26T13:02:09;102849.84;;;7.19;47.41
72157;BME280;60035;52.122;5.406;2023-02-26T13:08:07;102855.88;;;7.23;49.22
72157;BME280;60035;52.122;5.406;2023-02-26T13:16:10;102853.50;;;7.33;48.29
72157;BME280;60035;52.122;5.406;2023-02-26T13:18:59;102851.91;;;7.40;48.08
72157;BME280;60035;52.122;5.406;2023-02-26T13:21:42;102852.94;;;7.52;47.67
72157;BME280;60035;52.122;5.406;2023-02-26T13:24:14;102843.59;;;7.52;45.90
72157;BME280;60035;52.122;5.406;2023-02-26T13:26:43;102845.88;;;7.35;45.47
72157;BME280;60035;52.122;5.406;2023-02-26T13:29:26;102848.88;;;7.11;46.18
72157;BME280;60035;52.122;5.406;2023-02-26T13:31:58;102844.72;;;7.16;47.48
72157;BME280;60035;52.122;5.406;2023-02-26T13:37:38;102830.50;;;7.30;47.63
72157;BME280;60035;52.122;5.406;2023-02-26T13:40:42;102843.31;;;7.35;46.72
72157;BME280;60035;52.122;5.406;2023-02-26T13:43:23;102839.13;;;7.39;46.01
72157;BME280;60035;52.122;5.406;2023-02-26T13:46:07;102844.13;;;7.34;46.28
72157;BME280;60035;52.122;5.406;2023-02-26T13:51:12;102831.53;;;7.42;46.48
72157;BME280;60035;52.122;5.406;2023-02-26T14:07:10;102823.41;;;8.30;46.50
72157;BME280;60035;52.122;5.406;2023-02-26T14:10:00;102833.03;;;8.50;45.97
72157;BME280;60035;52.122;5.406;2023-02-26T14:12:37;102829.84;;;8.71;45.42
72157;BME280;60035;52.122;5.406;2023-02-26T14:15:25;102826.66;;;8.91;45.86
72157;BME280;60035;52.122;5.406;2023-02-26T14:18:10;102836.22;;;9.15;45.45
72157;BME280;60035;52.122;5.406;2023-02-26T14:20:44;102834.34;;;8.94;45.34
72157;BME280;60035;52.122;5.406;2023-02-26T14:23:23;102843.09;;;8.41;46.18
72157;BME280;60035;52.122;5.406;2023-02-26T14:26:02;102850.88;;;8.45;46.21
72157;BME280;60035;52.122;5.406;2023-02-26T14:28:40;102854.03;;;8.32;46.22
72157;BME280;60035;52.122;5.406;2023-02-26T14:33:41;102853.00;;;7.56;45.44
72157;BME280;60035;52.122;5.406;2023-02-26T14:36:31;102840.66;;;7.29;46.01
72157;BME280;60035;52.122;5.406;2023-02-26T14:39:01;102853.97;;;7.11;45.89
72157;BME280;60035;52.122;5.406;2023-02-26T14:41:33;102841.84;;;6.97;45.74
72157;BME280;60035;52.122;5.406;2023-02-26T14:44:06;102846.00;;;6.92;46.68
72157;BME280;60035;52.122;5.406;2023-02-26T14:46:37;102840.09;;;6.95;47.00
72157;BME280;60035;52.122;5.406;2023-02-26T14:49:05;102846.84;;;6.93;47.07
72157;BME280;60035;52.122;5.406;2023-02-26T15:00:46;102853.09;;;6.63;47.30
72157;BME280;60035;52.122;5.406;2023-02-26T15:03:30;102856.47;;;6.62;46.93
72157;BME280;60035;52.122;5.406;2023-02-26T15:11:45;102858.06;;;6.58;48.44
72157;BME280;60035;52.122;5.406;2023-02-26T15:25:31;102855.72;;;6.26;49.75
72157;BME280;60035;52.122;5.406;2023-02-26T15:28:00;102856.53;;;6.24;49.89